East Putney, Vermont
Current Conditions -  °F | °C
As of 7:55 PM on Tuesday 21 Oct 2014 (Local Time) from KEEN Reporting Station
Overcast Overcast  
Wind Chill: 52°   Ceiling: 1100
Heat Index: 52°   Visibility: 10mi
Dew Point: 45°   Wind: 6mph
Humidity: 76%   Direction: 350°N
Pressure: 29.98"   Gusts: NA
Location:  43.041°N, 72.534°W
Report Text: KEEN 212355Z AUTO 35005KT 10SM OVC011 11/07 A2998 RMK AO1 10130 20110 401300070 52010
Loading
Personal Weather Stations






























Interactive Weather Map
Tropical Storm Tracking
New forecast layout! Learn more

10-Day Weather Forecast

Advertisements
Track Severe Weather on mobile